createdAt,value
2022-09-17T00:01:04.520Z,11.40
2022-09-17T00:03:33.748Z,9.50
2022-09-17T00:06:02.584Z,7.07
2022-09-17T00:08:29.915Z,8.23
2022-09-17T00:10:56.538Z,10.30
2022-09-17T00:13:23.510Z,12.27
2022-09-17T00:15:51.764Z,13.33
2022-09-17T00:18:18.713Z,9.87
2022-09-17T00:20:47.405Z,10.23
2022-09-17T00:23:14.805Z,9.40
2022-09-17T00:25:43.684Z,9.40
2022-09-17T00:28:11.381Z,9.17
2022-09-17T00:30:44.250Z,10.20
2022-09-17T00:33:16.442Z,7.57
2022-09-17T00:35:44.573Z,13.17
2022-09-17T00:38:12.073Z,8.70
2022-09-17T00:40:39.468Z,13.63
2022-09-17T00:43:12.122Z,10.07
2022-09-17T00:45:40.058Z,10.67
2022-09-17T00:48:07.033Z,12.30
2022-09-17T00:50:42.117Z,12.53
2022-09-17T00:53:12.194Z,8.00
2022-09-17T00:55:54.851Z,8.60
2022-09-17T00:58:23.435Z,11.67
2022-09-17T01:00:49.916Z,9.53
2022-09-17T01:03:16.522Z,12.47
2022-09-17T01:05:50.403Z,12.67
2022-09-17T01:08:35.679Z,10.87
2022-09-17T01:11:30.783Z,12.90
2022-09-17T01:14:11.167Z,12.03
2022-09-17T01:16:46.404Z,15.63
2022-09-17T01:19:42.717Z,14.17
2022-09-17T01:22:22.111Z,16.27
2022-09-17T01:25:14.988Z,10.90
2022-09-17T01:28:00.143Z,13.10
2022-09-17T01:30:56.726Z,12.60
2022-09-17T01:33:28.761Z,14.17
2022-09-17T01:36:30.152Z,9.10
2022-09-17T01:39:16.827Z,9.60
2022-09-17T01:42:05.583Z,16.13
2022-09-17T01:44:47.243Z,12.23
2022-09-17T01:47:22.775Z,18.33
2022-09-17T01:49:53.465Z,12.63
2022-09-17T01:52:20.648Z,14.87
2022-09-17T01:54:53.367Z,14.83
2022-09-17T01:57:24.546Z,19.00
2022-09-17T02:00:01.025Z,18.50
2022-09-17T02:02:50.032Z,10.03
2022-09-17T02:05:27.295Z,14.77
2022-09-17T02:07:58.510Z,15.00
2022-09-17T02:10:34.524Z,14.17
2022-09-17T02:13:08.455Z,14.90
2022-09-17T02:15:40.179Z,11.63
2022-09-17T02:18:15.407Z,13.87
2022-09-17T02:20:50.423Z,19.50
2022-09-17T02:23:23.762Z,18.23
2022-09-17T02:25:57.129Z,18.73
2022-09-17T02:28:40.845Z,13.23
2022-09-17T02:31:08.528Z,11.67
2022-09-17T02:33:38.485Z,14.63
2022-09-17T02:36:05.621Z,17.80
2022-09-17T02:38:32.421Z,15.97
2022-09-17T02:41:18.161Z,13.60
2022-09-17T02:44:09.543Z,17.93
2022-09-17T02:46:57.999Z,16.27
2022-09-17T02:49:37.356Z,16.73
2022-09-17T02:52:23.101Z,13.13
2022-09-17T02:55:16.669Z,15.13
2022-09-17T02:57:58.717Z,13.53
2022-09-17T03:00:28.306Z,14.23
2022-09-17T03:03:33.113Z,21.13
2022-09-17T03:06:00.432Z,17.87
2022-09-17T03:08:34.897Z,14.70
2022-09-17T03:11:02.370Z,14.23
2022-09-17T03:13:28.772Z,15.40
2022-09-17T03:15:55.447Z,10.97
2022-09-17T03:18:22.026Z,16.10
2022-09-17T03:20:48.440Z,12.03
2022-09-17T03:23:15.498Z,13.00
2022-09-17T03:25:42.266Z,20.47
2022-09-17T03:28:10.790Z,12.57
2022-09-17T03:30:38.689Z,13.43
2022-09-17T03:33:05.165Z,19.70
2022-09-17T03:35:31.513Z,17.50
2022-09-17T03:37:58.034Z,16.07
2022-09-17T03:40:24.583Z,14.43
2022-09-17T03:42:51.696Z,9.73
2022-09-17T03:45:18.098Z,13.93
2022-09-17T03:47:44.835Z,16.70
2022-09-17T03:50:11.368Z,10.37
2022-09-17T03:52:38.502Z,15.33
2022-09-17T03:55:05.336Z,12.80
2022-09-17T03:57:31.695Z,16.27
2022-09-17T03:59:58.143Z,21.67
2022-09-17T04:02:24.565Z,16.83
2022-09-17T04:04:53.390Z,14.87
2022-09-17T04:07:19.854Z,16.13
2022-09-17T04:09:46.269Z,20.23
2022-09-17T04:12:12.766Z,14.50
2022-09-17T04:14:39.657Z,15.93
2022-09-17T04:17:06.020Z,12.77
2022-09-17T04:19:32.853Z,11.20
2022-09-17T04:22:00.148Z,19.00
2022-09-17T04:24:28.092Z,13.67
2022-09-17T04:26:54.725Z,12.57
2022-09-17T04:29:21.145Z,19.27
2022-09-17T04:31:47.658Z,16.13
2022-09-17T04:34:14.061Z,21.40
2022-09-17T04:36:40.833Z,15.13
2022-09-17T04:39:07.631Z,14.47
2022-09-17T04:41:34.132Z,20.40
2022-09-17T04:44:00.630Z,15.43
2022-09-17T04:46:30.043Z,17.60
2022-09-17T04:48:56.558Z,14.97
2022-09-17T04:51:22.954Z,14.43
2022-09-17T04:53:49.307Z,20.30
2022-09-17T04:56:15.777Z,12.37
2022-09-17T04:58:42.567Z,20.57
2022-09-17T05:01:09.116Z,18.80
2022-09-17T05:03:35.667Z,13.17
2022-09-17T05:06:02.049Z,15.67
2022-09-17T05:08:28.487Z,13.33
2022-09-17T05:10:54.955Z,13.13
2022-09-17T05:13:21.393Z,12.00
2022-09-17T05:15:47.920Z,14.40
2022-09-17T05:18:14.755Z,15.17
2022-09-17T05:20:41.417Z,18.63
2022-09-17T05:23:08.802Z,12.60
2022-09-17T05:25:35.209Z,12.40
2022-09-17T05:28:02.723Z,13.70
2022-09-17T05:30:30.041Z,15.40
2022-09-17T05:33:04.592Z,14.70
2022-09-17T05:35:33.455Z,16.93
2022-09-17T05:38:05.326Z,15.80
2022-09-17T05:40:33.050Z,18.30
2022-09-17T05:43:04.618Z,18.60
2022-09-17T05:45:33.272Z,12.93
2022-09-17T05:48:02.678Z,15.70
2022-09-17T05:50:30.082Z,21.47
2022-09-17T05:52:56.863Z,14.80
2022-09-17T05:55:24.027Z,13.37
2022-09-17T05:57:52.070Z,10.70
2022-09-17T06:00:18.944Z,13.40
2022-09-17T06:02:45.639Z,16.40
2022-09-17T06:05:12.538Z,17.87
2022-09-17T06:07:39.854Z,16.50
2022-09-17T06:10:08.783Z,13.77
2022-09-17T06:12:38.034Z,10.27
2022-09-17T06:15:05.277Z,19.73
2022-09-17T06:17:36.030Z,13.90
2022-09-17T06:20:04.493Z,13.40
2022-09-17T06:22:31.296Z,14.47
2022-09-17T06:24:57.709Z,17.57
2022-09-17T06:27:24.202Z,14.33
2022-09-17T06:29:50.557Z,11.67
2022-09-17T06:32:17.012Z,10.97
2022-09-17T06:34:44.025Z,14.70
2022-09-17T06:37:10.545Z,17.90
2022-09-17T06:39:37.625Z,16.57
2022-09-17T06:42:04.397Z,17.40
2022-09-17T06:44:32.325Z,15.17
2022-09-17T06:46:58.740Z,15.50
2022-09-17T06:49:25.193Z,15.57
2022-09-17T06:51:51.905Z,16.70
2022-09-17T06:54:18.631Z,19.07
2022-09-17T06:56:47.647Z,19.13
2022-09-17T06:59:14.136Z,12.30
2022-09-17T07:01:40.915Z,16.27
2022-09-17T07:04:07.688Z,12.37
2022-09-17T07:06:34.352Z,14.93
2022-09-17T07:09:00.786Z,13.10
2022-09-17T07:11:29.171Z,17.80
2022-09-17T07:13:56.196Z,16.63
2022-09-17T07:16:23.562Z,14.07
2022-09-17T07:18:50.095Z,15.27
2022-09-17T07:21:16.514Z,17.60
2022-09-17T07:23:42.866Z,17.53
2022-09-17T07:26:14.534Z,13.03
2022-09-17T07:28:44.210Z,15.30
2022-09-17T07:31:16.095Z,13.63
2022-09-17T07:33:43.180Z,10.43
2022-09-17T07:36:15.325Z,13.43
2022-09-17T07:38:41.889Z,15.87
2022-09-17T07:41:13.767Z,17.77
2022-09-17T07:43:41.447Z,14.03
2022-09-17T07:46:18.006Z,11.57
2022-09-17T07:48:46.033Z,13.77
2022-09-17T07:51:21.902Z,12.50
2022-09-17T07:53:51.991Z,12.23
2022-09-17T07:56:18.709Z,11.50
2022-09-17T07:58:45.228Z,16.60
2022-09-17T08:01:13.536Z,12.07
2022-09-17T08:03:40.266Z,11.47
2022-09-17T08:06:09.107Z,15.60
2022-09-17T08:08:36.712Z,18.07
2022-09-17T08:11:08.018Z,13.63
2022-09-17T08:13:34.626Z,13.50
2022-09-17T08:16:15.938Z,15.37
2022-09-17T08:18:44.199Z,12.77
2022-09-17T08:21:13.545Z,13.67
2022-09-17T08:23:42.049Z,12.00
2022-09-17T08:26:13.325Z,12.83
2022-09-17T08:28:40.281Z,14.03
2022-09-17T08:31:08.883Z,10.23
2022-09-17T08:33:39.340Z,11.10
2022-09-17T08:36:08.887Z,13.27
2022-09-17T08:38:39.132Z,14.73
2022-09-17T08:41:11.686Z,12.60
2022-09-17T08:43:45.286Z,13.77
2022-09-17T08:46:12.634Z,14.87
2022-09-17T08:48:50.107Z,12.73
2022-09-17T08:51:54.674Z,11.07
2022-09-17T08:54:33.549Z,7.20
2022-09-17T08:57:15.867Z,13.13
2022-09-17T08:59:50.910Z,12.80
2022-09-17T09:02:41.820Z,11.23
2022-09-17T09:05:17.955Z,9.93
2022-09-17T09:07:52.109Z,15.27
2022-09-17T09:10:27.423Z,14.87
2022-09-17T09:12:55.903Z,10.10
2022-09-17T09:15:47.303Z,9.30
2022-09-17T09:18:21.377Z,15.47
2022-09-17T09:20:49.832Z,11.87
2022-09-17T09:23:48.491Z,13.70
2022-09-17T09:26:20.553Z,9.03
2022-09-17T09:28:56.103Z,9.90
2022-09-17T09:31:41.435Z,10.60
2022-09-17T09:34:10.541Z,12.67
2022-09-17T09:36:38.781Z,10.83
2022-09-17T09:39:17.927Z,10.07
2022-09-17T09:42:26.883Z,12.90
2022-09-17T09:44:53.823Z,10.97
2022-09-17T09:47:32.586Z,13.60
2022-09-17T09:50:09.029Z,12.67
2022-09-17T09:52:48.250Z,15.53
2022-09-17T09:55:36.789Z,11.30
2022-09-17T09:58:17.670Z,10.03
2022-09-17T10:00:44.207Z,9.03
2022-09-17T10:03:19.665Z,11.53
2022-09-17T10:06:02.113Z,11.43
2022-09-17T10:08:31.341Z,10.77
2022-09-17T10:11:02.018Z,11.30
2022-09-17T10:13:31.713Z,12.80
2022-09-17T10:16:16.827Z,12.53
2022-09-17T10:18:44.282Z,14.13
2022-09-17T10:21:21.171Z,10.63
2022-09-17T10:23:48.379Z,12.40
2022-09-17T10:26:27.534Z,9.17
2022-09-17T10:28:56.093Z,8.13
2022-09-17T10:31:23.305Z,9.40
2022-09-17T10:33:57.710Z,8.80
2022-09-17T10:36:42.549Z,11.53
2022-09-17T10:39:44.267Z,5.70
2022-09-17T10:42:18.882Z,7.30
2022-09-17T10:44:58.930Z,12.10
2022-09-17T10:47:29.467Z,10.07
2022-09-17T10:50:00.590Z,9.90
2022-09-17T10:52:47.761Z,13.10
2022-09-17T10:55:26.558Z,10.37
2022-09-17T10:58:16.097Z,8.37
2022-09-17T11:00:53.375Z,11.80
2022-09-17T11:04:02.310Z,10.17
2022-09-17T11:07:03.609Z,10.30
2022-09-17T11:09:51.955Z,10.00
2022-09-17T11:12:42.077Z,12.07
2022-09-17T11:15:23.589Z,11.23
2022-09-17T11:18:04.211Z,5.57
2022-09-17T11:21:04.714Z,8.87
2022-09-17T11:24:00.615Z,6.27
2022-09-17T11:26:45.402Z,12.13
2022-09-17T11:29:41.157Z,11.03
2022-09-17T11:32:29.733Z,13.43
2022-09-17T11:35:08.079Z,12.87
2022-09-17T11:37:48.847Z,7.57
2022-09-17T11:40:23.895Z,10.03
2022-09-17T11:43:00.987Z,11.33
2022-09-17T11:45:32.306Z,10.43
2022-09-17T11:48:16.973Z,6.43
2022-09-17T11:50:50.044Z,5.60
2022-09-17T11:53:35.142Z,9.63
2022-09-17T11:56:10.199Z,10.10
2022-09-17T11:58:49.773Z,7.93
2022-09-17T12:01:26.054Z,7.97
2022-09-17T12:04:02.111Z,11.40
2022-09-17T12:06:39.081Z,7.13
2022-09-17T12:09:20.333Z,11.50
2022-09-17T12:11:58.116Z,11.40
2022-09-17T12:14:36.356Z,9.30
2022-09-17T12:17:04.356Z,7.83
2022-09-17T12:19:55.107Z,12.03
2022-09-17T12:22:25.848Z,9.90
2022-09-17T12:24:54.901Z,6.90
2022-09-17T12:27:30.198Z,8.83
2022-09-17T12:30:09.199Z,9.00
2022-09-17T12:33:07.340Z,9.67
2022-09-17T12:36:04.919Z,6.63
2022-09-17T12:39:06.673Z,12.87
2022-09-17T12:42:02.095Z,5.97
2022-09-17T12:44:31.712Z,7.77
2022-09-17T12:47:21.328Z,7.40
2022-09-17T12:50:11.422Z,4.80
2022-09-17T12:52:55.918Z,6.73
2022-09-17T12:55:30.977Z,8.00
2022-09-17T12:58:27.019Z,9.70
2022-09-17T13:01:07.219Z,7.67
2022-09-17T13:03:42.942Z,4.67
2022-09-17T13:06:28.072Z,7.10
2022-09-17T13:09:33.099Z,7.30
2022-09-17T13:12:15.414Z,11.87
2022-09-17T13:14:55.889Z,7.80
2022-09-17T13:18:00.844Z,13.70
2022-09-17T13:21:02.425Z,4.50
2022-09-17T13:23:45.489Z,11.07
2022-09-17T13:26:17.204Z,8.77
2022-09-17T13:28:49.654Z,7.97
2022-09-17T13:31:44.686Z,5.33
2022-09-17T13:34:17.421Z,5.50
2022-09-17T13:36:47.522Z,3.33
2022-09-17T13:39:35.639Z,5.17
2022-09-17T13:42:14.617Z,6.33
2022-09-17T13:44:50.097Z,6.17
2022-09-17T13:47:25.693Z,7.10
2022-09-17T13:50:04.010Z,5.27
2022-09-17T13:52:59.669Z,5.20
2022-09-17T13:55:40.370Z,8.13
2022-09-17T13:58:12.941Z,5.80
2022-09-17T14:01:03.380Z,6.50
2022-09-17T14:03:44.146Z,5.87
2022-09-17T14:06:11.372Z,6.13
2022-09-17T14:08:45.704Z,16.97
2022-09-17T14:11:21.290Z,13.97
2022-09-17T14:13:57.754Z,13.73
2022-09-17T14:16:50.153Z,10.47
2022-09-17T14:19:16.878Z,10.87
2022-09-17T14:21:57.255Z,9.70
2022-09-17T14:24:25.680Z,9.10
2022-09-17T14:27:11.331Z,7.60
2022-09-17T14:29:50.222Z,8.17
2022-09-17T14:32:22.200Z,8.53
2022-09-17T14:34:49.750Z,8.97
2022-09-17T14:37:20.592Z,7.77
2022-09-17T14:39:48.928Z,8.17
2022-09-17T14:42:22.166Z,6.37
2022-09-17T14:45:00.761Z,6.40
2022-09-17T14:47:28.297Z,5.73
2022-09-17T14:49:55.266Z,8.03
2022-09-17T14:52:32.672Z,6.80
2022-09-17T14:55:20.399Z,7.77
2022-09-17T14:57:51.600Z,5.17
2022-09-17T15:00:22.025Z,6.77
2022-09-17T15:02:55.488Z,6.27
2022-09-17T15:05:23.750Z,5.43
2022-09-17T15:07:50.580Z,5.23
2022-09-17T15:10:22.044Z,7.37
2022-09-17T15:12:50.862Z,15.10
2022-09-17T15:15:23.185Z,7.10
2022-09-17T15:17:51.174Z,2.60
2022-09-17T15:20:28.751Z,6.07
2022-09-17T15:23:04.715Z,9.40
2022-09-17T15:25:32.277Z,7.90
2022-09-17T15:28:04.964Z,7.47
2022-09-17T15:30:31.805Z,7.40
2022-09-17T15:33:02.779Z,6.00
2022-09-17T15:35:33.740Z,5.93
2022-09-17T15:38:22.156Z,7.07
2022-09-17T15:40:49.709Z,6.90
2022-09-17T15:43:29.948Z,5.23
2022-09-17T15:45:58.189Z,5.67
2022-09-17T15:48:27.464Z,6.90
2022-09-17T15:50:59.293Z,8.03
2022-09-17T15:53:27.936Z,29.60
2022-09-17T15:56:13.199Z,24.47
2022-09-17T15:58:42.808Z,15.70
2022-09-17T16:01:18.506Z,15.77
2022-09-17T16:03:44.975Z,9.10
2022-09-17T16:06:25.255Z,8.27
2022-09-17T16:08:57.880Z,8.07
2022-09-17T16:11:26.534Z,8.13
2022-09-17T16:13:55.274Z,6.77
2022-09-17T16:16:33.478Z,10.73
2022-09-17T16:19:00.136Z,12.63
2022-09-17T16:21:26.878Z,12.50
2022-09-17T16:23:54.042Z,17.43
2022-09-17T16:26:23.375Z,8.97
2022-09-17T16:28:53.860Z,10.53
2022-09-17T16:31:21.027Z,12.93
2022-09-17T16:33:52.332Z,9.47
2022-09-17T16:36:19.255Z,10.07
2022-09-17T16:38:45.845Z,7.20
2022-09-17T16:41:13.198Z,12.10
2022-09-17T16:43:40.456Z,11.53
2022-09-17T16:46:12.732Z,9.77
2022-09-17T16:48:41.474Z,10.27
2022-09-17T16:51:12.220Z,11.57
2022-09-17T16:53:40.131Z,7.57
2022-09-17T16:56:09.022Z,9.97
2022-09-17T16:58:36.151Z,9.20
2022-09-17T17:01:28.687Z,9.33
2022-09-17T17:03:56.170Z,7.00
2022-09-17T17:06:22.639Z,8.97
2022-09-17T17:08:49.270Z,9.53
2022-09-17T17:11:16.078Z,7.03
2022-09-17T17:13:43.256Z,8.53
2022-09-17T17:16:17.381Z,6.90
2022-09-17T17:18:44.903Z,9.90
2022-09-17T17:21:13.531Z,7.53
2022-09-17T17:23:40.596Z,9.07
2022-09-17T17:26:06.953Z,7.87
2022-09-17T17:28:35.556Z,9.47
2022-09-17T17:31:04.679Z,8.47
2022-09-17T17:33:31.174Z,7.10
2022-09-17T17:36:07.282Z,8.80
2022-09-17T17:38:35.687Z,10.90
2022-09-17T17:41:03.491Z,10.87
2022-09-17T17:43:30.049Z,12.03
2022-09-17T17:45:56.511Z,12.77
2022-09-17T17:48:22.946Z,18.07
2022-09-17T17:50:53.397Z,9.93
2022-09-17T17:53:22.885Z,12.33
2022-09-17T17:56:00.539Z,11.60
2022-09-17T17:58:33.048Z,9.00
2022-09-17T18:01:00.285Z,13.10
2022-09-17T18:03:26.803Z,13.50
2022-09-17T18:06:00.545Z,12.63
2022-09-17T18:08:28.014Z,11.73
2022-09-17T18:10:56.358Z,11.50
2022-09-17T18:13:24.031Z,6.47
2022-09-17T18:16:02.743Z,12.63
2022-09-17T18:18:35.606Z,12.83
2022-09-17T18:21:07.077Z,11.83
2022-09-17T18:23:36.024Z,12.97
2022-09-17T18:26:04.757Z,13.20
2022-09-17T18:28:33.450Z,9.70
2022-09-17T18:31:09.621Z,9.10
2022-09-17T18:33:36.345Z,10.73
2022-09-17T18:36:05.371Z,10.97
2022-09-17T18:38:32.830Z,13.73
2022-09-17T18:41:04.406Z,11.07
2022-09-17T18:43:32.874Z,10.23
2022-09-17T18:45:59.270Z,12.10
2022-09-17T18:48:25.913Z,9.47
2022-09-17T18:51:07.549Z,11.27
2022-09-17T18:53:36.868Z,13.53
2022-09-17T18:56:10.686Z,11.80
2022-09-17T18:58:37.264Z,10.70
2022-09-17T19:01:07.666Z,10.10
2022-09-17T19:03:35.292Z,10.50
2022-09-17T19:06:04.864Z,11.10
2022-09-17T19:08:31.409Z,13.67
2022-09-17T19:10:58.635Z,14.27
2022-09-17T19:13:25.922Z,11.20
2022-09-17T19:15:53.416Z,16.57
2022-09-17T19:18:20.143Z,15.43
2022-09-17T19:20:46.500Z,9.50
2022-09-17T19:23:13.274Z,27.43
2022-09-17T19:26:17.179Z,22.87
2022-09-17T19:28:43.770Z,16.50
2022-09-17T19:31:12.791Z,15.80
2022-09-17T19:33:39.912Z,17.77
2022-09-17T19:36:12.466Z,14.13
2022-09-17T19:38:45.926Z,22.70
2022-09-17T19:41:18.491Z,12.70
2022-09-17T19:43:45.973Z,13.83
2022-09-17T19:46:13.571Z,11.60
2022-09-17T19:48:47.966Z,10.13
2022-09-17T19:51:15.762Z,15.43
2022-09-17T19:53:42.621Z,14.30
2022-09-17T19:56:14.073Z,12.77
2022-09-17T19:58:41.388Z,11.77
2022-09-17T20:01:08.554Z,12.20
2022-09-17T20:03:35.488Z,16.77
2022-09-17T20:06:05.523Z,12.07
2022-09-17T20:08:32.668Z,14.60
2022-09-17T20:11:07.415Z,15.50
2022-09-17T20:13:34.736Z,13.27
2022-09-17T20:16:10.835Z,12.80
2022-09-17T20:18:37.778Z,11.53
2022-09-17T20:21:09.746Z,10.17
2022-09-17T20:23:36.152Z,13.37
2022-09-17T20:26:03.459Z,12.63
2022-09-17T20:28:29.890Z,11.43
2022-09-17T20:31:07.575Z,10.47
2022-09-17T20:33:34.458Z,7.43
2022-09-17T20:36:02.497Z,12.03
2022-09-17T20:39:10.744Z,12.10
2022-09-17T20:41:17.207Z,12.07
2022-09-17T20:43:46.833Z,10.93
2022-09-17T20:46:13.969Z,12.37
2022-09-17T20:48:41.812Z,11.13
2022-09-17T20:51:15.245Z,10.13
2022-09-17T20:53:42.499Z,9.10
2022-09-17T20:56:14.465Z,13.93
2022-09-17T20:58:48.681Z,8.73
2022-09-17T21:01:21.964Z,11.40
2022-09-17T21:03:51.072Z,15.93
2022-09-17T21:06:26.330Z,8.73
2022-09-17T21:08:55.275Z,5.73
2022-09-17T21:11:23.407Z,8.07
2022-09-17T21:13:50.105Z,12.03
2022-09-17T21:16:16.938Z,9.07
2022-09-17T21:18:43.834Z,9.47
2022-09-17T21:21:16.150Z,8.97
2022-09-17T21:23:43.689Z,14.07
2022-09-17T21:26:35.773Z,9.13
2022-09-17T21:29:02.606Z,7.37
2022-09-17T21:31:32.958Z,10.53
2022-09-17T21:34:02.718Z,8.53
2022-09-17T21:36:32.383Z,7.83
2022-09-17T21:39:02.165Z,10.07
2022-09-17T21:41:29.106Z,8.30
2022-09-17T21:43:56.267Z,8.40
2022-09-17T21:46:25.322Z,6.27
2022-09-17T21:48:57.629Z,7.53
2022-09-17T21:51:37.062Z,8.50
2022-09-17T21:54:06.542Z,8.43
2022-09-17T21:56:33.606Z,8.70
2022-09-17T21:59:02.921Z,13.97
2022-09-17T22:01:33.069Z,7.47
2022-09-17T22:04:01.903Z,9.63
2022-09-17T22:06:31.284Z,8.00
2022-09-17T22:08:59.651Z,12.87
2022-09-17T22:11:31.987Z,10.23
2022-09-17T22:14:05.228Z,10.60
2022-09-17T22:16:33.302Z,7.80
2022-09-17T22:18:59.795Z,9.00
2022-09-17T22:21:28.044Z,7.60
2022-09-17T22:23:56.909Z,10.63
2022-09-17T22:26:24.978Z,10.40
2022-09-17T22:28:52.485Z,10.70
2022-09-17T22:31:19.685Z,10.33
2022-09-17T22:33:49.997Z,11.20
2022-09-17T22:36:19.750Z,9.43
2022-09-17T22:38:48.472Z,9.90
2022-09-17T22:41:17.874Z,8.97
2022-09-17T22:43:44.793Z,7.90
2022-09-17T22:46:12.759Z,11.27
2022-09-17T22:48:41.073Z,6.43
2022-09-17T22:51:07.942Z,9.53
2022-09-17T22:53:36.351Z,14.43
2022-09-17T22:56:05.321Z,9.90
2022-09-17T22:58:32.216Z,14.17
2022-09-17T23:01:04.341Z,8.90
2022-09-17T23:03:31.158Z,6.83
2022-09-17T23:06:02.531Z,9.77
2022-09-17T23:08:29.027Z,11.87
2022-09-17T23:10:56.255Z,10.63
2022-09-17T23:13:22.853Z,13.10
2022-09-17T23:15:49.548Z,11.77
2022-09-17T23:18:16.423Z,11.83
2022-09-17T23:20:42.869Z,10.37
2022-09-17T23:23:10.136Z,10.27
2022-09-17T23:25:36.578Z,9.83
2022-09-17T23:28:02.956Z,9.87
2022-09-17T23:30:29.397Z,7.20
2022-09-17T23:32:56.813Z,8.83
2022-09-17T23:35:24.517Z,9.20
2022-09-17T23:37:50.998Z,9.73
2022-09-17T23:40:18.408Z,9.77
2022-09-17T23:42:45.361Z,7.83
2022-09-17T23:45:12.168Z,8.97
2022-09-17T23:47:39.065Z,11.17
2022-09-17T23:50:05.867Z,10.23
2022-09-17T23:52:32.346Z,9.67
2022-09-17T23:54:58.771Z,11.43
2022-09-17T23:57:25.636Z,8.00
2022-09-17T23:59:52.527Z,8.13
